createdAt,value
2018-09-12T00:02:05.549Z,16.40
2018-09-12T00:04:33.225Z,16.40
2018-09-12T00:07:00.893Z,16.20
2018-09-12T00:09:28.513Z,16.20
2018-09-12T00:11:56.237Z,16.30
2018-09-12T00:14:23.898Z,16.20
2018-09-12T00:16:51.592Z,16.20
2018-09-12T00:19:19.199Z,16.20
2018-09-12T00:21:47.031Z,16.10
2018-09-12T00:24:14.713Z,16.10
2018-09-12T00:26:42.353Z,16.10
2018-09-12T00:29:10.005Z,16.00
2018-09-12T00:31:37.639Z,15.90
2018-09-12T00:34:05.291Z,15.90
2018-09-12T00:36:32.946Z,15.90
2018-09-12T00:39:00.574Z,15.90
2018-09-12T00:41:28.270Z,15.90
2018-09-12T00:43:55.902Z,15.90
2018-09-12T00:46:23.494Z,15.90
2018-09-12T00:48:51.201Z,15.80
2018-09-12T00:51:18.865Z,15.70
2018-09-12T00:53:46.589Z,15.60
2018-09-12T00:56:14.161Z,15.60
2018-09-12T00:58:41.795Z,15.60
2018-09-12T01:01:09.410Z,15.70
2018-09-12T01:03:37.335Z,15.60
2018-09-12T01:06:04.972Z,15.60
2018-09-12T01:08:32.580Z,15.60
2018-09-12T01:11:00.259Z,15.60
2018-09-12T01:13:27.910Z,15.60
2018-09-12T01:15:55.617Z,15.60
2018-09-12T01:18:23.253Z,15.60
2018-09-12T01:20:51.669Z,15.60
2018-09-12T01:23:20.162Z,15.50
2018-09-12T01:25:47.816Z,15.40
2018-09-12T01:28:15.764Z,15.40
2018-09-12T01:30:44.504Z,15.40
2018-09-12T01:33:12.199Z,15.40
2018-09-12T01:35:39.886Z,15.30
2018-09-12T01:38:07.543Z,15.20
2018-09-12T01:40:35.178Z,15.10
2018-09-12T01:43:02.875Z,15.20
2018-09-12T01:45:30.483Z,15.10
2018-09-12T01:47:58.145Z,15.10
2018-09-12T01:50:25.800Z,15.10
2018-09-12T01:52:53.527Z,15.10
2018-09-12T01:55:21.186Z,15.10
2018-09-12T01:57:48.869Z,15.10
2018-09-12T02:00:17.624Z,15.10
2018-09-12T02:02:45.933Z,15.00
2018-09-12T02:05:13.654Z,15.00
2018-09-12T02:07:41.516Z,15.00
2018-09-12T02:10:10.227Z,15.00
2018-09-12T02:12:37.880Z,14.90
2018-09-12T02:15:05.662Z,14.90
2018-09-12T02:17:33.343Z,14.90
2018-09-12T02:20:01.195Z,14.90
2018-09-12T02:22:28.855Z,14.90
2018-09-12T02:24:56.912Z,14.90
2018-09-12T02:27:24.605Z,14.80
2018-09-12T02:29:52.301Z,14.80
2018-09-12T02:32:19.936Z,14.80
2018-09-12T02:34:47.635Z,14.80
2018-09-12T02:37:15.240Z,14.80
2018-09-12T02:39:43.015Z,14.70
2018-09-12T02:42:10.719Z,14.60
2018-09-12T02:44:38.397Z,14.60
2018-09-12T02:47:10.274Z,14.60
2018-09-12T02:49:37.911Z,14.60
2018-09-12T02:52:05.550Z,14.50
2018-09-12T02:54:33.991Z,14.60
2018-09-12T02:57:01.610Z,14.60
2018-09-12T02:59:29.300Z,14.60
2018-09-12T03:01:56.901Z,14.60
2018-09-12T03:04:24.565Z,14.60
2018-09-12T03:06:52.247Z,14.60
2018-09-12T03:09:19.879Z,14.60
2018-09-12T03:11:47.489Z,14.60
2018-09-12T03:14:15.561Z,14.60
2018-09-12T03:16:43.195Z,14.50
2018-09-12T03:19:11.143Z,14.50
2018-09-12T03:21:38.826Z,14.50
2018-09-12T03:24:06.518Z,14.50
2018-09-12T03:26:34.186Z,14.50
2018-09-12T03:29:01.810Z,14.40
2018-09-12T03:31:29.497Z,14.40
2018-09-12T03:33:57.148Z,14.40
2018-09-12T03:36:24.813Z,14.30
2018-09-12T03:38:52.449Z,14.20
2018-09-12T03:41:20.065Z,14.30
2018-09-12T03:43:47.737Z,14.20
2018-09-12T03:46:15.367Z,14.20
2018-09-12T03:48:42.960Z,14.20
2018-09-12T03:51:10.625Z,14.20
2018-09-12T03:53:38.300Z,14.10
2018-09-12T03:56:05.930Z,14.10
2018-09-12T03:58:34.251Z,14.10
2018-09-12T04:01:01.971Z,14.10
2018-09-12T04:03:29.697Z,14.10
2018-09-12T04:05:57.451Z,14.00
2018-09-12T04:08:25.414Z,14.10
2018-09-12T04:10:53.056Z,14.10
2018-09-12T04:13:20.634Z,14.00
2018-09-12T04:15:48.246Z,14.00
2018-09-12T04:18:15.946Z,14.00
2018-09-12T04:20:43.719Z,14.00
2018-09-12T04:23:12.398Z,13.90
2018-09-12T04:25:40.039Z,13.90
2018-09-12T04:28:07.743Z,13.90
2018-09-12T04:30:35.421Z,13.90
2018-09-12T04:33:03.128Z,13.90
2018-09-12T04:35:30.844Z,13.80
2018-09-12T04:37:58.534Z,13.80
2018-09-12T04:40:31.803Z,13.80
2018-09-12T04:42:59.444Z,13.80
2018-09-12T04:45:27.307Z,13.70
2018-09-12T04:47:54.964Z,13.70
2018-09-12T04:50:22.648Z,13.60
2018-09-12T04:52:50.306Z,13.70
2018-09-12T04:55:18.029Z,13.60
2018-09-12T04:57:45.726Z,13.60
2018-09-12T05:00:14.294Z,13.70
2018-09-12T05:02:41.989Z,13.80
2018-09-12T05:05:09.919Z,13.80
2018-09-12T05:07:37.573Z,13.90
2018-09-12T05:10:05.451Z,13.90
2018-09-12T05:12:33.096Z,13.90
2018-09-12T05:15:00.753Z,13.90
2018-09-12T05:17:28.427Z,13.90
2018-09-12T05:22:51.812Z,13.80
2018-09-12T05:25:19.456Z,13.90
2018-09-12T05:27:47.178Z,13.90
2018-09-12T05:30:14.940Z,13.90
2018-09-12T05:32:48.354Z,14.00
2018-09-12T05:35:16.379Z,14.00
2018-09-12T05:37:45.031Z,14.10
2018-09-12T05:40:19.403Z,14.10
2018-09-12T05:42:46.995Z,14.20
2018-09-12T05:45:14.933Z,14.30
2018-09-12T05:47:44.666Z,14.30
2018-09-12T05:50:12.449Z,14.30
2018-09-12T05:52:42.143Z,14.40
2018-09-12T05:58:01.604Z,14.60
2018-09-12T06:00:29.249Z,14.80
2018-09-12T06:02:56.904Z,14.90
2018-09-12T06:05:24.538Z,15.10
2018-09-12T06:07:52.167Z,15.30
2018-09-12T06:10:19.870Z,15.50
2018-09-12T06:12:54.337Z,15.70
2018-09-12T06:15:25.629Z,16.00
2018-09-12T06:17:53.398Z,16.20
2018-09-12T06:20:21.072Z,16.60
2018-09-12T06:22:48.681Z,16.80
2018-09-12T06:25:16.343Z,17.00
2018-09-12T06:27:44.018Z,17.30
2018-09-12T06:30:13.220Z,17.50
2018-09-12T06:32:40.870Z,17.70
2018-09-12T06:35:08.510Z,18.00
2018-09-12T06:37:36.187Z,18.20
2018-09-12T06:40:03.940Z,18.30
2018-09-12T06:42:31.609Z,18.50
2018-09-12T06:45:00.171Z,18.60
2018-09-12T06:47:40.201Z,18.80
2018-09-12T06:50:07.814Z,19.00
2018-09-12T06:52:35.480Z,19.20
2018-09-12T06:55:03.118Z,19.40
2018-09-12T06:57:30.760Z,19.50
2018-09-12T07:00:04.864Z,19.70
2018-09-12T07:02:32.535Z,20.00
2018-09-12T07:05:13.872Z,20.00
2018-09-12T07:07:41.533Z,20.20
2018-09-12T07:10:09.109Z,20.30
2018-09-12T07:12:38.964Z,20.50
2018-09-12T07:15:13.676Z,20.60
2018-09-12T07:17:48.283Z,20.80
2018-09-12T07:23:05.147Z,21.20
2018-09-12T07:25:32.775Z,21.30
2018-09-12T07:28:00.436Z,21.50
2018-09-12T07:30:28.176Z,21.70
2018-09-12T07:33:12.717Z,21.80
2018-09-12T07:35:40.406Z,21.80
2018-09-12T07:38:08.107Z,22.00
2018-09-12T07:40:35.894Z,22.00
2018-09-12T07:43:03.505Z,22.20
2018-09-12T07:45:31.558Z,22.30
2018-09-12T07:48:00.321Z,22.40
2018-09-12T07:50:34.891Z,22.60
2018-09-12T07:53:02.530Z,22.60
2018-09-12T07:55:30.289Z,22.70
2018-09-12T07:57:58.958Z,22.80
2018-09-12T08:00:26.726Z,22.90
2018-09-12T08:03:00.746Z,23.00
2018-09-12T08:05:28.348Z,23.10
2018-09-12T08:07:59.349Z,23.20
2018-09-12T08:10:27.036Z,23.30
2018-09-12T08:12:54.750Z,23.30
2018-09-12T08:15:22.298Z,23.50
2018-09-12T08:17:54.944Z,23.60
2018-09-12T08:20:22.586Z,23.70
2018-09-12T08:22:50.356Z,23.80
2018-09-12T08:25:18.220Z,23.90
2018-09-12T08:27:46.046Z,24.00
2018-09-12T08:30:13.757Z,24.00
2018-09-12T08:32:43.490Z,24.10
2018-09-12T08:35:11.537Z,24.10
2018-09-12T08:37:39.203Z,24.00
2018-09-12T08:40:06.816Z,24.20
2018-09-12T08:42:34.508Z,24.30
2018-09-12T08:45:02.134Z,24.40
2018-09-12T08:47:29.781Z,24.80
2018-09-12T08:49:57.401Z,25.10
2018-09-12T08:52:25.125Z,25.30
2018-09-12T08:54:52.758Z,25.50
2018-09-12T08:57:26.314Z,25.60
2018-09-12T08:59:54.804Z,25.80
2018-09-12T09:02:38.172Z,26.00
2018-09-12T09:05:05.890Z,26.20
2018-09-12T09:07:33.797Z,26.30
2018-09-12T09:10:01.409Z,26.60
2018-09-12T09:12:29.090Z,26.70
2018-09-12T09:14:56.853Z,26.90
2018-09-12T09:17:24.749Z,27.00
2018-09-12T09:19:53.334Z,26.90
2018-09-12T09:22:21.080Z,27.00
2018-09-12T09:24:48.931Z,27.10
2018-09-12T09:27:17.390Z,27.00
2018-09-12T09:29:48.341Z,27.20
2018-09-12T09:32:16.126Z,27.10
2018-09-12T09:34:44.611Z,27.10
2018-09-12T09:37:12.312Z,27.00
2018-09-12T09:39:40.118Z,27.10
2018-09-12T09:42:07.998Z,27.00
2018-09-12T09:44:41.600Z,27.20
2018-09-12T09:47:09.301Z,27.30
2018-09-12T09:49:37.369Z,27.40
2018-09-12T09:52:05.403Z,27.40
2018-09-12T09:54:33.171Z,27.30
2018-09-12T09:57:00.882Z,27.40
2018-09-12T09:59:28.713Z,27.40
2018-09-12T10:02:01.824Z,27.50
2018-09-12T10:04:34.942Z,27.60
2018-09-12T10:07:08.147Z,27.70
2018-09-12T10:09:35.821Z,27.80
2018-09-12T10:12:04.097Z,28.10
2018-09-12T10:14:31.873Z,28.20
2018-09-12T10:16:59.802Z,28.20
2018-09-12T10:19:27.584Z,28.30
2018-09-12T10:21:57.292Z,28.40
2018-09-12T10:24:25.140Z,28.60
2018-09-12T10:26:53.761Z,28.60
2018-09-12T10:29:21.422Z,28.50
2018-09-12T10:31:49.207Z,28.70
2018-09-12T10:34:16.889Z,28.70
2018-09-12T10:36:44.515Z,28.80
2018-09-12T10:39:18.318Z,29.00
2018-09-12T10:41:46.009Z,29.00
2018-09-12T10:44:13.796Z,29.10
2018-09-12T10:46:42.506Z,29.20
2018-09-12T10:49:10.456Z,29.40
2018-09-12T10:51:38.166Z,29.50
2018-09-12T10:54:05.990Z,29.70
2018-09-12T10:56:37.243Z,29.90
2018-09-12T10:59:04.977Z,30.20
2018-09-12T11:01:32.666Z,30.30
2018-09-12T11:04:08.641Z,30.50
2018-09-12T11:06:36.290Z,30.80
2018-09-12T11:09:12.871Z,31.10
2018-09-12T11:11:40.670Z,31.20
2018-09-12T11:14:08.716Z,31.40
2018-09-12T11:16:36.650Z,31.40
2018-09-12T11:19:08.728Z,31.30
2018-09-12T11:21:38.206Z,31.30
2018-09-12T11:24:06.261Z,31.30
2018-09-12T11:26:34.315Z,31.30
2018-09-12T11:29:01.967Z,31.30
2018-09-12T11:31:29.979Z,31.40
2018-09-12T11:33:59.657Z,30.90
2018-09-12T11:39:24.169Z,30.90
2018-09-12T11:44:47.633Z,31.50
2018-09-12T11:47:17.310Z,31.70
2018-09-12T11:49:45.071Z,31.90
2018-09-12T11:52:17.657Z,32.00
2018-09-12T11:54:45.290Z,32.00
2018-09-12T11:57:12.968Z,32.00
2018-09-12T12:02:26.380Z,32.10
2018-09-12T12:04:56.170Z,32.20
2018-09-12T12:07:27.318Z,32.20
2018-09-12T12:10:12.233Z,32.40
2018-09-12T12:12:42.313Z,32.50
2018-09-12T12:15:15.099Z,32.50
2018-09-12T12:17:54.940Z,32.40
2018-09-12T12:20:39.641Z,32.50
2018-09-12T12:23:10.459Z,32.60
2018-09-12T12:25:38.571Z,32.20
2018-09-12T12:28:08.778Z,31.90
2018-09-12T12:30:38.413Z,31.80
2018-09-12T12:33:07.273Z,31.70
2018-09-12T12:35:41.077Z,31.70
2018-09-12T12:38:08.907Z,31.70
2018-09-12T12:40:41.804Z,31.80
2018-09-12T12:43:24.026Z,32.10
2018-09-12T12:45:52.011Z,32.30
2018-09-12T12:48:19.911Z,32.50
2018-09-12T12:50:47.759Z,32.80
2018-09-12T12:53:18.526Z,32.90
2018-09-12T12:55:49.564Z,33.00
2018-09-12T12:58:17.357Z,33.10
2018-09-12T13:00:45.140Z,33.30
2018-09-12T13:03:13.091Z,33.40
2018-09-12T13:05:57.506Z,33.40
2018-09-12T13:08:25.236Z,33.40
2018-09-12T13:10:56.678Z,33.30
2018-09-12T13:13:24.435Z,33.30
2018-09-12T13:15:57.753Z,33.10
2018-09-12T13:18:25.537Z,33.20
2018-09-12T13:20:53.235Z,33.20
2018-09-12T13:23:21.027Z,33.30
2018-09-12T13:25:48.722Z,33.20
2018-09-12T13:28:16.361Z,32.90
2018-09-12T13:30:46.102Z,32.80
2018-09-12T13:33:13.757Z,32.60
2018-09-12T13:35:41.617Z,32.60
2018-09-12T13:38:09.580Z,32.50
2018-09-12T13:40:42.834Z,32.40
2018-09-12T13:43:12.101Z,32.30
2018-09-12T13:48:38.276Z,32.00
2018-09-12T13:51:06.094Z,31.80
2018-09-12T13:53:34.946Z,31.80
2018-09-12T13:56:04.644Z,31.60
2018-09-12T13:58:32.386Z,31.50
2018-09-12T14:01:00.135Z,31.30
2018-09-12T14:03:32.196Z,31.40
2018-09-12T14:05:59.901Z,31.40
2018-09-12T14:08:31.635Z,31.40
2018-09-12T14:10:59.418Z,31.40
2018-09-12T14:13:27.354Z,31.40
2018-09-12T14:16:01.780Z,31.30
2018-09-12T14:18:29.586Z,31.20
2018-09-12T14:20:57.521Z,31.10
2018-09-12T14:23:25.340Z,31.10
2018-09-12T14:25:53.162Z,31.10
2018-09-12T14:28:20.914Z,31.00
2018-09-12T14:30:48.841Z,30.90
2018-09-12T14:33:21.062Z,30.70
2018-09-12T14:35:48.946Z,30.70
2018-09-12T14:38:16.672Z,30.60
2018-09-12T20:21:28.883Z,21.60
2018-09-12T20:24:00.577Z,21.70
2018-09-12T20:26:33.256Z,21.70
2018-09-12T20:29:00.892Z,21.70
2018-09-12T20:31:30.578Z,21.60
2018-09-12T20:33:58.312Z,21.60
2018-09-12T20:36:28.026Z,21.60
2018-09-12T20:38:56.317Z,21.70
2018-09-12T20:41:23.946Z,21.70
2018-09-12T20:43:51.590Z,21.60
2018-09-12T20:46:29.817Z,21.60
2018-09-12T20:48:57.500Z,21.60
2018-09-12T20:51:25.110Z,21.60
2018-09-12T20:53:52.883Z,21.60
2018-09-12T20:56:20.505Z,21.60
2018-09-12T20:58:48.506Z,21.50
2018-09-12T21:01:16.178Z,21.40
2018-09-12T21:03:44.031Z,21.30
2018-09-12T21:06:12.788Z,21.20
2018-09-12T21:08:40.554Z,21.20
2018-09-12T21:11:08.210Z,21.20
2018-09-12T21:13:35.933Z,21.20
2018-09-12T21:16:03.585Z,21.10
2018-09-12T21:18:31.267Z,21.10
2018-09-12T21:20:58.886Z,21.00
2018-09-12T21:23:26.535Z,21.00
2018-09-12T21:25:54.246Z,20.90
2018-09-12T21:28:23.062Z,20.90
2018-09-12T21:30:50.821Z,20.90
2018-09-12T21:33:18.462Z,20.90
2018-09-12T21:35:49.112Z,20.90
2018-09-12T21:38:16.771Z,20.80
2018-09-12T21:40:44.471Z,20.60
2018-09-12T21:43:12.069Z,20.70
2018-09-12T21:45:39.666Z,20.50
2018-09-12T21:48:07.262Z,20.40
2018-09-12T21:50:34.945Z,20.50
2018-09-12T21:53:02.599Z,20.50
2018-09-12T21:55:30.207Z,20.50
2018-09-12T21:57:57.789Z,20.50
2018-09-12T22:00:25.443Z,20.40
2018-09-12T22:03:05.273Z,20.40
2018-09-12T22:05:33.014Z,20.40
2018-09-12T22:08:00.736Z,20.30
2018-09-12T22:13:19.794Z,20.40
2018-09-12T22:15:47.453Z,20.20
2018-09-12T22:18:15.070Z,20.20
2018-09-12T22:20:42.677Z,20.20
2018-09-12T22:23:10.400Z,20.20
2018-09-12T22:25:38.217Z,20.20
2018-09-12T22:33:40.176Z,20.10
2018-09-12T22:36:07.841Z,20.00
2018-09-12T22:38:35.553Z,20.00
2018-09-12T22:41:03.267Z,19.90
2018-09-12T22:43:30.934Z,19.80
2018-09-12T22:45:58.589Z,19.80
2018-09-12T22:48:26.271Z,19.70
2018-09-12T22:50:59.936Z,19.60
2018-09-12T22:53:27.578Z,19.70
2018-09-12T22:55:55.265Z,19.70
2018-09-12T22:58:22.893Z,19.60
2018-09-12T23:00:50.548Z,19.60
2018-09-12T23:03:18.169Z,19.60
2018-09-12T23:05:45.828Z,19.60
2018-09-12T23:08:13.547Z,19.50
2018-09-12T23:10:41.184Z,19.50
2018-09-12T23:13:08.809Z,19.40
2018-09-12T23:15:47.514Z,19.40
2018-09-12T23:18:15.121Z,19.30
2018-09-12T23:20:42.777Z,19.40
2018-09-12T23:26:05.825Z,19.30
2018-09-12T23:28:33.280Z,19.20
2018-09-12T23:31:00.942Z,19.20
2018-09-12T23:33:28.580Z,19.10
2018-09-12T23:36:01.046Z,19.00
2018-09-12T23:38:28.756Z,19.00
2018-09-12T23:40:56.406Z,19.00
2018-09-12T23:43:24.036Z,19.10
2018-09-12T23:45:53.884Z,19.00
2018-09-12T23:48:21.571Z,18.90
2018-09-12T23:50:49.262Z,18.70
2018-09-12T23:53:16.905Z,18.70
2018-09-12T23:55:44.565Z,18.70
2018-09-12T23:58:12.190Z,18.70
